sensor_id;sensor_type;location;lat;lon;timestamp;P1;durP1;ratioP1;P2;durP2;ratioP2
146;SDS011;45999;48.808;9.182;2022-09-09T00:00:13;3.53;;;1.40;;
146;SDS011;45999;48.808;9.182;2022-09-09T00:03:02;5.77;;;1.40;;
146;SDS011;45999;48.808;9.182;2022-09-09T00:05:46;4.37;;;1.57;;
146;SDS011;45999;48.808;9.182;2022-09-09T00:08:25;6.00;;;1.10;;
146;SDS011;45999;48.808;9.182;2022-09-09T00:11:04;3.17;;;1.10;;
146;SDS011;45999;48.808;9.182;2022-09-09T00:13:34;2.03;;;1.10;;
146;SDS011;45999;48.808;9.182;2022-09-09T00:16:08;5.80;;;1.40;;
146;SDS011;45999;48.808;9.182;2022-09-09T00:19:00;4.73;;;1.20;;
146;SDS011;45999;48.808;9.182;2022-09-09T00:21:38;3.40;;;1.00;;
146;SDS011;45999;48.808;9.182;2022-09-09T00:24:36;4.07;;;0.90;;
146;SDS011;45999;48.808;9.182;2022-09-09T00:27:22;1.70;;;0.83;;
146;SDS011;45999;48.808;9.182;2022-09-09T00:30:37;2.27;;;1.40;;
146;SDS011;45999;48.808;9.182;2022-09-09T00:33:00;2.90;;;1.00;;
146;SDS011;45999;48.808;9.182;2022-09-09T00:35:37;4.10;;;1.30;;
146;SDS011;45999;48.808;9.182;2022-09-09T00:38:10;3.20;;;1.40;;
146;SDS011;45999;48.808;9.182;2022-09-09T00:40:50;2.37;;;1.10;;
146;SDS011;45999;48.808;9.182;2022-09-09T00:43:26;2.07;;;1.13;;
146;SDS011;45999;48.808;9.182;2022-09-09T00:51:27;3.00;;;1.10;;
146;SDS011;45999;48.808;9.182;2022-09-09T00:56:35;2.67;;;1.37;;
146;SDS011;45999;48.808;9.182;2022-09-09T01:01:46;4.83;;;1.30;;
146;SDS011;45999;48.808;9.182;2022-09-09T01:04:13;2.70;;;1.23;;
146;SDS011;45999;48.808;9.182;2022-09-09T01:06:48;3.30;;;1.40;;
146;SDS011;45999;48.808;9.182;2022-09-09T01:14:50;5.70;;;1.10;;
146;SDS011;45999;48.808;9.182;2022-09-09T01:17:34;2.33;;;1.17;;
146;SDS011;45999;48.808;9.182;2022-09-09T01:20:12;2.87;;;1.27;;
146;SDS011;45999;48.808;9.182;2022-09-09T01:28:50;5.83;;;1.57;;
146;SDS011;45999;48.808;9.182;2022-09-09T01:31:20;7.37;;;1.60;;
146;SDS011;45999;48.808;9.182;2022-09-09T01:33:52;3.50;;;1.37;;
146;SDS011;45999;48.808;9.182;2022-09-09T01:36:24;6.77;;;1.70;;
146;SDS011;45999;48.808;9.182;2022-09-09T01:38:55;5.13;;;1.50;;
146;SDS011;45999;48.808;9.182;2022-09-09T01:41:22;5.03;;;1.33;;
146;SDS011;45999;48.808;9.182;2022-09-09T01:43:49;5.30;;;1.43;;
146;SDS011;45999;48.808;9.182;2022-09-09T01:46:17;3.70;;;1.60;;
146;SDS011;45999;48.808;9.182;2022-09-09T01:48:47;2.97;;;1.10;;
146;SDS011;45999;48.808;9.182;2022-09-09T01:51:14;2.37;;;1.20;;
146;SDS011;45999;48.808;9.182;2022-09-09T01:53:40;3.63;;;1.33;;
146;SDS011;45999;48.808;9.182;2022-09-09T02:01:24;4.67;;;1.40;;
146;SDS011;45999;48.808;9.182;2022-09-09T02:04:03;3.63;;;1.00;;
146;SDS011;45999;48.808;9.182;2022-09-09T02:06:40;2.23;;;0.90;;
146;SDS011;45999;48.808;9.182;2022-09-09T02:09:07;2.87;;;1.20;;
146;SDS011;45999;48.808;9.182;2022-09-09T02:11:38;2.43;;;1.00;;
146;SDS011;45999;48.808;9.182;2022-09-09T02:14:08;3.63;;;1.20;;
146;SDS011;45999;48.808;9.182;2022-09-09T02:16:39;3.50;;;1.17;;
146;SDS011;45999;48.808;9.182;2022-09-09T02:19:13;4.00;;;1.20;;
146;SDS011;45999;48.808;9.182;2022-09-09T02:21:51;2.07;;;0.80;;
146;SDS011;45999;48.808;9.182;2022-09-09T02:24:21;3.77;;;1.40;;
146;SDS011;45999;48.808;9.182;2022-09-09T02:26:49;3.37;;;1.07;;
146;SDS011;45999;48.808;9.182;2022-09-09T02:29:21;5.83;;;1.37;;
146;SDS011;45999;48.808;9.182;2022-09-09T02:31:52;1.60;;;0.90;;
146;SDS011;45999;48.808;9.182;2022-09-09T02:34:22;2.97;;;1.27;;
146;SDS011;45999;48.808;9.182;2022-09-09T02:36:50;3.90;;;1.17;;
146;SDS011;45999;48.808;9.182;2022-09-09T02:39:20;3.40;;;0.90;;
146;SDS011;45999;48.808;9.182;2022-09-09T02:41:47;2.73;;;0.90;;
146;SDS011;45999;48.808;9.182;2022-09-09T02:44:18;2.87;;;0.80;;
146;SDS011;45999;48.808;9.182;2022-09-09T02:52:30;2.80;;;0.80;;
146;SDS011;45999;48.808;9.182;2022-09-09T02:55:06;1.43;;;0.80;;
146;SDS011;45999;48.808;9.182;2022-09-09T02:57:40;1.47;;;0.90;;
146;SDS011;45999;48.808;9.182;2022-09-09T03:00:10;0.70;;;0.70;;
146;SDS011;45999;48.808;9.182;2022-09-09T03:02:37;4.03;;;0.77;;
146;SDS011;45999;48.808;9.182;2022-09-09T03:05:04;3.13;;;0.90;;
146;SDS011;45999;48.808;9.182;2022-09-09T03:07:31;2.73;;;0.80;;
146;SDS011;45999;48.808;9.182;2022-09-09T03:09:58;1.23;;;0.70;;
146;SDS011;45999;48.808;9.182;2022-09-09T03:12:24;3.17;;;1.00;;
146;SDS011;45999;48.808;9.182;2022-09-09T03:14:51;0.93;;;0.63;;
146;SDS011;45999;48.808;9.182;2022-09-09T03:17:17;3.23;;;0.90;;
146;SDS011;45999;48.808;9.182;2022-09-09T03:19:44;1.40;;;0.90;;
146;SDS011;45999;48.808;9.182;2022-09-09T03:22:10;2.43;;;0.70;;
146;SDS011;45999;48.808;9.182;2022-09-09T03:24:38;2.63;;;0.90;;
146;SDS011;45999;48.808;9.182;2022-09-09T03:27:05;1.77;;;0.90;;
146;SDS011;45999;48.808;9.182;2022-09-09T03:29:32;2.90;;;0.90;;
146;SDS011;45999;48.808;9.182;2022-09-09T03:31:58;4.33;;;0.90;;
146;SDS011;45999;48.808;9.182;2022-09-09T03:34:24;2.80;;;0.90;;
146;SDS011;45999;48.808;9.182;2022-09-09T03:36:51;3.10;;;0.87;;
146;SDS011;45999;48.808;9.182;2022-09-09T03:39:17;2.47;;;0.90;;
146;SDS011;45999;48.808;9.182;2022-09-09T03:41:43;2.43;;;1.13;;
146;SDS011;45999;48.808;9.182;2022-09-09T03:44:12;2.83;;;0.90;;
146;SDS011;45999;48.808;9.182;2022-09-09T03:46:38;2.83;;;0.90;;
146;SDS011;45999;48.808;9.182;2022-09-09T03:49:05;1.37;;;0.90;;
146;SDS011;45999;48.808;9.182;2022-09-09T03:51:31;1.20;;;0.80;;
146;SDS011;45999;48.808;9.182;2022-09-09T03:54:01;1.70;;;0.80;;
146;SDS011;45999;48.808;9.182;2022-09-09T03:56:30;1.73;;;0.80;;
146;SDS011;45999;48.808;9.182;2022-09-09T03:58:56;2.47;;;1.30;;
146;SDS011;45999;48.808;9.182;2022-09-09T04:01:23;1.93;;;0.70;;
146;SDS011;45999;48.808;9.182;2022-09-09T04:03:49;2.40;;;0.80;;
146;SDS011;45999;48.808;9.182;2022-09-09T04:06:17;2.53;;;0.80;;
146;SDS011;45999;48.808;9.182;2022-09-09T04:08:46;2.93;;;1.03;;
146;SDS011;45999;48.808;9.182;2022-09-09T04:11:13;2.90;;;0.90;;
146;SDS011;45999;48.808;9.182;2022-09-09T04:13:41;1.57;;;0.80;;
146;SDS011;45999;48.808;9.182;2022-09-09T04:16:09;2.93;;;0.90;;
146;SDS011;45999;48.808;9.182;2022-09-09T04:18:38;1.73;;;0.80;;
146;SDS011;45999;48.808;9.182;2022-09-09T04:21:05;2.33;;;0.73;;
146;SDS011;45999;48.808;9.182;2022-09-09T04:23:32;2.00;;;0.77;;
146;SDS011;45999;48.808;9.182;2022-09-09T04:26:00;2.93;;;1.07;;
146;SDS011;45999;48.808;9.182;2022-09-09T04:28:28;5.03;;;1.67;;
146;SDS011;45999;48.808;9.182;2022-09-09T04:30:56;3.50;;;1.87;;
146;SDS011;45999;48.808;9.182;2022-09-09T04:33:23;4.67;;;2.43;;
146;SDS011;45999;48.808;9.182;2022-09-09T04:35:51;4.00;;;2.13;;
146;SDS011;45999;48.808;9.182;2022-09-09T04:38:18;3.70;;;1.50;;
146;SDS011;45999;48.808;9.182;2022-09-09T04:40:47;2.83;;;1.20;;
146;SDS011;45999;48.808;9.182;2022-09-09T04:43:14;1.80;;;1.13;;
146;SDS011;45999;48.808;9.182;2022-09-09T04:45:41;2.57;;;0.90;;
146;SDS011;45999;48.808;9.182;2022-09-09T04:48:08;1.60;;;0.87;;
146;SDS011;45999;48.808;9.182;2022-09-09T04:50:35;1.67;;;1.00;;
146;SDS011;45999;48.808;9.182;2022-09-09T04:53:02;2.10;;;1.27;;
146;SDS011;45999;48.808;9.182;2022-09-09T04:55:29;2.10;;;1.10;;
146;SDS011;45999;48.808;9.182;2022-09-09T04:57:56;3.17;;;1.00;;
146;SDS011;45999;48.808;9.182;2022-09-09T05:00:26;3.67;;;0.90;;
146;SDS011;45999;48.808;9.182;2022-09-09T05:02:52;2.40;;;0.83;;
146;SDS011;45999;48.808;9.182;2022-09-09T05:05:18;4.53;;;0.93;;
146;SDS011;45999;48.808;9.182;2022-09-09T05:07:45;1.33;;;0.90;;
146;SDS011;45999;48.808;9.182;2022-09-09T05:10:12;2.40;;;1.23;;
146;SDS011;45999;48.808;9.182;2022-09-09T05:12:39;2.37;;;1.20;;
146;SDS011;45999;48.808;9.182;2022-09-09T05:15:06;3.57;;;1.07;;
146;SDS011;45999;48.808;9.182;2022-09-09T05:17:32;3.90;;;1.20;;
146;SDS011;45999;48.808;9.182;2022-09-09T05:19:59;3.23;;;1.20;;
146;SDS011;45999;48.808;9.182;2022-09-09T05:22:27;4.33;;;1.07;;
146;SDS011;45999;48.808;9.182;2022-09-09T05:24:55;4.27;;;1.07;;
146;SDS011;45999;48.808;9.182;2022-09-09T05:27:21;2.07;;;1.10;;
146;SDS011;45999;48.808;9.182;2022-09-09T05:29:47;2.63;;;1.13;;
146;SDS011;45999;48.808;9.182;2022-09-09T05:32:14;2.40;;;1.03;;
146;SDS011;45999;48.808;9.182;2022-09-09T05:34:42;2.53;;;0.97;;
146;SDS011;45999;48.808;9.182;2022-09-09T05:37:08;3.10;;;1.00;;
146;SDS011;45999;48.808;9.182;2022-09-09T05:39:35;1.97;;;1.10;;
146;SDS011;45999;48.808;9.182;2022-09-09T05:42:02;2.60;;;1.20;;
146;SDS011;45999;48.808;9.182;2022-09-09T05:44:29;3.63;;;1.33;;
146;SDS011;45999;48.808;9.182;2022-09-09T05:46:56;4.50;;;1.20;;
146;SDS011;45999;48.808;9.182;2022-09-09T05:49:23;2.37;;;1.17;;
146;SDS011;45999;48.808;9.182;2022-09-09T05:51:49;4.33;;;1.23;;
146;SDS011;45999;48.808;9.182;2022-09-09T05:54:16;1.80;;;0.90;;
146;SDS011;45999;48.808;9.182;2022-09-09T05:56:42;2.77;;;1.00;;
146;SDS011;45999;48.808;9.182;2022-09-09T05:59:09;3.80;;;1.00;;
146;SDS011;45999;48.808;9.182;2022-09-09T06:01:36;4.80;;;1.33;;
146;SDS011;45999;48.808;9.182;2022-09-09T06:04:05;1.67;;;1.13;;
146;SDS011;45999;48.808;9.182;2022-09-09T06:06:36;4.10;;;1.30;;
146;SDS011;45999;48.808;9.182;2022-09-09T06:09:05;5.83;;;1.97;;
146;SDS011;45999;48.808;9.182;2022-09-09T06:11:35;4.40;;;1.80;;
146;SDS011;45999;48.808;9.182;2022-09-09T06:14:03;8.10;;;2.50;;
146;SDS011;45999;48.808;9.182;2022-09-09T06:16:30;5.20;;;1.90;;
146;SDS011;45999;48.808;9.182;2022-09-09T06:18:58;4.83;;;2.27;;
146;SDS011;45999;48.808;9.182;2022-09-09T06:21:34;5.20;;;2.20;;
146;SDS011;45999;48.808;9.182;2022-09-09T06:24:03;4.73;;;1.90;;
146;SDS011;45999;48.808;9.182;2022-09-09T06:26:31;3.93;;;2.10;;
146;SDS011;45999;48.808;9.182;2022-09-09T06:28:58;7.43;;;2.10;;
146;SDS011;45999;48.808;9.182;2022-09-09T06:31:27;2.60;;;1.60;;
146;SDS011;45999;48.808;9.182;2022-09-09T06:33:56;4.43;;;1.83;;
146;SDS011;45999;48.808;9.182;2022-09-09T06:38:54;3.07;;;1.67;;
146;SDS011;45999;48.808;9.182;2022-09-09T06:41:21;3.77;;;1.90;;
146;SDS011;45999;48.808;9.182;2022-09-09T06:43:52;3.87;;;1.50;;
146;SDS011;45999;48.808;9.182;2022-09-09T06:46:21;5.43;;;1.43;;
146;SDS011;45999;48.808;9.182;2022-09-09T06:48:50;4.67;;;1.67;;
146;SDS011;45999;48.808;9.182;2022-09-09T06:51:20;3.27;;;1.40;;
146;SDS011;45999;48.808;9.182;2022-09-09T06:53:52;3.37;;;1.30;;
146;SDS011;45999;48.808;9.182;2022-09-09T06:58:53;2.90;;;1.23;;
146;SDS011;45999;48.808;9.182;2022-09-09T07:01:22;5.07;;;1.30;;
146;SDS011;45999;48.808;9.182;2022-09-09T07:03:51;2.10;;;1.10;;
146;SDS011;45999;48.808;9.182;2022-09-09T07:06:23;2.07;;;1.13;;
146;SDS011;45999;48.808;9.182;2022-09-09T07:08:51;3.73;;;1.30;;
146;SDS011;45999;48.808;9.182;2022-09-09T07:11:23;1.93;;;1.40;;
146;SDS011;45999;48.808;9.182;2022-09-09T07:13:52;4.93;;;1.70;;
146;SDS011;45999;48.808;9.182;2022-09-09T07:16:19;4.57;;;1.43;;
146;SDS011;45999;48.808;9.182;2022-09-09T07:18:48;3.73;;;1.60;;
146;SDS011;45999;48.808;9.182;2022-09-09T07:21:15;4.83;;;1.67;;
146;SDS011;45999;48.808;9.182;2022-09-09T07:23:43;2.73;;;1.20;;
146;SDS011;45999;48.808;9.182;2022-09-09T07:26:11;1.83;;;1.20;;
146;SDS011;45999;48.808;9.182;2022-09-09T07:28:39;5.27;;;1.57;;
146;SDS011;45999;48.808;9.182;2022-09-09T07:31:06;3.53;;;1.30;;
146;SDS011;45999;48.808;9.182;2022-09-09T07:33:38;6.50;;;1.50;;
146;SDS011;45999;48.808;9.182;2022-09-09T07:36:16;3.93;;;1.53;;
146;SDS011;45999;48.808;9.182;2022-09-09T07:38:47;3.63;;;1.40;;
146;SDS011;45999;48.808;9.182;2022-09-09T07:41:17;2.83;;;1.20;;
146;SDS011;45999;48.808;9.182;2022-09-09T07:43:46;2.87;;;1.77;;
146;SDS011;45999;48.808;9.182;2022-09-09T07:46:15;5.53;;;1.90;;
146;SDS011;45999;48.808;9.182;2022-09-09T07:48:46;3.27;;;2.13;;
146;SDS011;45999;48.808;9.182;2022-09-09T07:51:19;4.83;;;2.07;;
146;SDS011;45999;48.808;9.182;2022-09-09T07:53:47;6.33;;;2.10;;
146;SDS011;45999;48.808;9.182;2022-09-09T07:56:17;6.17;;;2.23;;
146;SDS011;45999;48.808;9.182;2022-09-09T07:58:46;5.00;;;1.70;;
146;SDS011;45999;48.808;9.182;2022-09-09T08:01:18;5.27;;;1.73;;
146;SDS011;45999;48.808;9.182;2022-09-09T08:03:52;3.73;;;1.73;;
146;SDS011;45999;48.808;9.182;2022-09-09T08:06:24;3.20;;;1.50;;
146;SDS011;45999;48.808;9.182;2022-09-09T08:08:52;2.30;;;1.47;;
146;SDS011;45999;48.808;9.182;2022-09-09T08:11:21;5.20;;;1.70;;
146;SDS011;45999;48.808;9.182;2022-09-09T08:13:50;5.43;;;1.80;;
146;SDS011;45999;48.808;9.182;2022-09-09T08:16:19;2.97;;;1.50;;
146;SDS011;45999;48.808;9.182;2022-09-09T08:18:48;3.77;;;1.30;;
146;SDS011;45999;48.808;9.182;2022-09-09T08:21:20;2.23;;;1.20;;
146;SDS011;45999;48.808;9.182;2022-09-09T08:23:49;3.40;;;1.50;;
146;SDS011;45999;48.808;9.182;2022-09-09T08:26:19;3.80;;;1.50;;
146;SDS011;45999;48.808;9.182;2022-09-09T08:28:51;3.73;;;1.43;;
146;SDS011;45999;48.808;9.182;2022-09-09T08:33:47;4.23;;;1.20;;
146;SDS011;45999;48.808;9.182;2022-09-09T08:36:14;2.97;;;1.17;;
146;SDS011;45999;48.808;9.182;2022-09-09T08:38:43;2.17;;;1.03;;
146;SDS011;45999;48.808;9.182;2022-09-09T08:50:01;3.57;;;1.23;;
146;SDS011;45999;48.808;9.182;2022-09-09T08:52:40;3.77;;;1.20;;
146;SDS011;45999;48.808;9.182;2022-09-09T08:58:04;5.30;;;1.30;;
146;SDS011;45999;48.808;9.182;2022-09-09T09:03:51;4.63;;;1.03;;
146;SDS011;45999;48.808;9.182;2022-09-09T09:06:46;3.17;;;1.03;;
146;SDS011;45999;48.808;9.182;2022-09-09T09:12:16;5.17;;;1.10;;
146;SDS011;45999;48.808;9.182;2022-09-09T09:14:49;3.03;;;1.27;;
146;SDS011;45999;48.808;9.182;2022-09-09T09:17:16;4.77;;;1.23;;
146;SDS011;45999;48.808;9.182;2022-09-09T09:19:44;5.63;;;1.30;;
146;SDS011;45999;48.808;9.182;2022-09-09T09:30:29;2.63;;;1.00;;
146;SDS011;45999;48.808;9.182;2022-09-09T09:33:14;2.80;;;1.10;;
146;SDS011;45999;48.808;9.182;2022-09-09T09:35:48;2.90;;;1.10;;
146;SDS011;45999;48.808;9.182;2022-09-09T09:38:22;2.90;;;1.10;;
146;SDS011;45999;48.808;9.182;2022-09-09T09:40:52;2.50;;;1.00;;
146;SDS011;45999;48.808;9.182;2022-09-09T09:43:29;2.80;;;0.90;;
146;SDS011;45999;48.808;9.182;2022-09-09T09:45:57;2.63;;;0.90;;
146;SDS011;45999;48.808;9.182;2022-09-09T09:48:25;2.53;;;0.90;;
146;SDS011;45999;48.808;9.182;2022-09-09T09:53:48;1.17;;;0.70;;
146;SDS011;45999;48.808;9.182;2022-09-09T09:56:17;1.83;;;0.70;;
146;SDS011;45999;48.808;9.182;2022-09-09T09:58:53;1.30;;;0.80;;
146;SDS011;45999;48.808;9.182;2022-09-09T10:01:24;2.60;;;0.90;;
146;SDS011;45999;48.808;9.182;2022-09-09T10:03:52;2.70;;;0.80;;
146;SDS011;45999;48.808;9.182;2022-09-09T10:06:33;1.50;;;0.80;;
146;SDS011;45999;48.808;9.182;2022-09-09T10:09:02;2.27;;;0.73;;
146;SDS011;45999;48.808;9.182;2022-09-09T10:20:35;1.93;;;0.90;;
146;SDS011;45999;48.808;9.182;2022-09-09T10:22:59;1.33;;;1.00;;
146;SDS011;45999;48.808;9.182;2022-09-09T10:30:56;1.70;;;1.00;;
146;SDS011;45999;48.808;9.182;2022-09-09T10:33:32;3.80;;;1.20;;
146;SDS011;45999;48.808;9.182;2022-09-09T10:36:03;1.97;;;1.03;;
146;SDS011;45999;48.808;9.182;2022-09-09T10:38:48;2.63;;;0.90;;
146;SDS011;45999;48.808;9.182;2022-09-09T10:46:55;4.50;;;1.30;;
146;SDS011;45999;48.808;9.182;2022-09-09T10:52:32;3.27;;;1.40;;
146;SDS011;45999;48.808;9.182;2022-09-09T10:57:46;3.97;;;1.20;;
146;SDS011;45999;48.808;9.182;2022-09-09T11:00:20;3.15;;;1.33;;
146;SDS011;45999;48.808;9.182;2022-09-09T11:02:59;5.45;;;1.20;;
146;SDS011;45999;48.808;9.182;2022-09-09T11:05:36;2.38;;;1.00;;
146;SDS011;45999;48.808;9.182;2022-09-09T11:08:18;3.72;;;1.50;;
146;SDS011;45999;48.808;9.182;2022-09-09T11:19:03;3.47;;;1.23;;
146;SDS011;45999;48.808;9.182;2022-09-09T11:21:38;5.27;;;1.20;;
146;SDS011;45999;48.808;9.182;2022-09-09T11:24:16;5.80;;;1.10;;
146;SDS011;45999;48.808;9.182;2022-09-09T11:26:51;4.67;;;1.10;;
146;SDS011;45999;48.808;9.182;2022-09-09T11:32:20;5.67;;;1.43;;
146;SDS011;45999;48.808;9.182;2022-09-09T11:41:02;6.87;;;1.33;;
146;SDS011;45999;48.808;9.182;2022-09-09T11:43:50;3.60;;;1.07;;
146;SDS011;45999;48.808;9.182;2022-09-09T11:46:31;2.53;;;0.70;;
146;SDS011;45999;48.808;9.182;2022-09-09T11:49:03;1.30;;;0.70;;
146;SDS011;45999;48.808;9.182;2022-09-09T11:51:32;4.00;;;1.00;;
146;SDS011;45999;48.808;9.182;2022-09-09T11:54:25;1.73;;;0.90;;
146;SDS011;45999;48.808;9.182;2022-09-09T11:56:53;2.30;;;0.90;;
146;SDS011;45999;48.808;9.182;2022-09-09T11:59:49;1.43;;;0.80;;
146;SDS011;45999;48.808;9.182;2022-09-09T12:02:27;0.97;;;0.53;;
146;SDS011;45999;48.808;9.182;2022-09-09T12:07:28;1.27;;;0.70;;
146;SDS011;45999;48.808;9.182;2022-09-09T12:12:35;1.23;;;0.70;;
146;SDS011;45999;48.808;9.182;2022-09-09T12:17:42;0.97;;;0.70;;
146;SDS011;45999;48.808;9.182;2022-09-09T12:23:08;2.07;;;0.70;;
146;SDS011;45999;48.808;9.182;2022-09-09T12:34:29;2.37;;;0.70;;
146;SDS011;45999;48.808;9.182;2022-09-09T12:37:12;2.60;;;0.70;;
146;SDS011;45999;48.808;9.182;2022-09-09T12:39:59;1.50;;;0.60;;
146;SDS011;45999;48.808;9.182;2022-09-09T12:42:28;0.73;;;0.60;;
146;SDS011;45999;48.808;9.182;2022-09-09T12:45:01;1.43;;;0.70;;
146;SDS011;45999;48.808;9.182;2022-09-09T12:47:34;2.10;;;0.70;;
146;SDS011;45999;48.808;9.182;2022-09-09T12:50:19;2.73;;;0.73;;
146;SDS011;45999;48.808;9.182;2022-09-09T12:52:48;1.27;;;0.60;;
146;SDS011;45999;48.808;9.182;2022-09-09T12:55:19;2.93;;;0.83;;
146;SDS011;45999;48.808;9.182;2022-09-09T12:57:50;1.90;;;0.90;;
146;SDS011;45999;48.808;9.182;2022-09-09T13:00:21;1.40;;;0.70;;
146;SDS011;45999;48.808;9.182;2022-09-09T13:02:51;2.43;;;0.70;;
146;SDS011;45999;48.808;9.182;2022-09-09T13:05:28;1.33;;;0.80;;
146;SDS011;45999;48.808;9.182;2022-09-09T13:08:02;5.57;;;3.50;;
146;SDS011;45999;48.808;9.182;2022-09-09T13:10:33;2.33;;;0.70;;
146;SDS011;45999;48.808;9.182;2022-09-09T13:13:11;3.03;;;0.63;;
146;SDS011;45999;48.808;9.182;2022-09-09T13:15:47;1.00;;;0.70;;
146;SDS011;45999;48.808;9.182;2022-09-09T13:18:16;1.03;;;0.60;;
146;SDS011;45999;48.808;9.182;2022-09-09T13:20:48;2.70;;;0.73;;
146;SDS011;45999;48.808;9.182;2022-09-09T13:23:15;2.17;;;0.80;;
146;SDS011;45999;48.808;9.182;2022-09-09T13:28:52;1.03;;;0.80;;
146;SDS011;45999;48.808;9.182;2022-09-09T13:31:21;2.27;;;0.90;;
146;SDS011;45999;48.808;9.182;2022-09-09T13:33:55;0.63;;;0.60;;
146;SDS011;45999;48.808;9.182;2022-09-09T13:36:32;2.17;;;0.90;;
146;SDS011;45999;48.808;9.182;2022-09-09T13:39:02;4.77;;;0.90;;
146;SDS011;45999;48.808;9.182;2022-09-09T13:41:32;2.37;;;1.20;;
146;SDS011;45999;48.808;9.182;2022-09-09T13:44:00;1.73;;;0.73;;
146;SDS011;45999;48.808;9.182;2022-09-09T13:46:40;1.23;;;0.80;;
146;SDS011;45999;48.808;9.182;2022-09-09T13:54:08;1.80;;;0.83;;
146;SDS011;45999;48.808;9.182;2022-09-09T13:56:36;1.23;;;0.73;;
146;SDS011;45999;48.808;9.182;2022-09-09T13:59:06;3.10;;;0.90;;
146;SDS011;45999;48.808;9.182;2022-09-09T14:01:36;0.60;;;0.60;;
146;SDS011;45999;48.808;9.182;2022-09-09T14:04:03;0.80;;;0.60;;
146;SDS011;45999;48.808;9.182;2022-09-09T14:06:31;1.33;;;0.90;;
146;SDS011;45999;48.808;9.182;2022-09-09T14:08:58;2.27;;;0.90;;
146;SDS011;45999;48.808;9.182;2022-09-09T14:11:24;1.00;;;0.70;;
146;SDS011;45999;48.808;9.182;2022-09-09T14:13:51;0.83;;;0.60;;
146;SDS011;45999;48.808;9.182;2022-09-09T14:16:17;1.40;;;0.80;;
146;SDS011;45999;48.808;9.182;2022-09-09T14:18:45;1.47;;;0.80;;
146;SDS011;45999;48.808;9.182;2022-09-09T14:21:12;2.23;;;1.00;;
146;SDS011;45999;48.808;9.182;2022-09-09T14:23:39;1.00;;;0.60;;
146;SDS011;45999;48.808;9.182;2022-09-09T14:26:06;1.37;;;0.70;;
146;SDS011;45999;48.808;9.182;2022-09-09T14:28:32;1.03;;;0.67;;
146;SDS011;45999;48.808;9.182;2022-09-09T14:30:59;2.47;;;0.63;;
146;SDS011;45999;48.808;9.182;2022-09-09T14:33:27;1.43;;;0.73;;
146;SDS011;45999;48.808;9.182;2022-09-09T14:35:57;0.87;;;0.70;;
146;SDS011;45999;48.808;9.182;2022-09-09T14:38:25;3.97;;;0.80;;
146;SDS011;45999;48.808;9.182;2022-09-09T14:40:54;1.00;;;0.60;;
146;SDS011;45999;48.808;9.182;2022-09-09T14:43:21;2.43;;;0.70;;
146;SDS011;45999;48.808;9.182;2022-09-09T14:45:47;1.23;;;0.70;;
146;SDS011;45999;48.808;9.182;2022-09-09T14:48:16;1.83;;;0.70;;
146;SDS011;45999;48.808;9.182;2022-09-09T14:50:43;2.60;;;0.70;;
146;SDS011;45999;48.808;9.182;2022-09-09T14:53:09;1.97;;;0.70;;
146;SDS011;45999;48.808;9.182;2022-09-09T14:55:36;2.33;;;0.73;;
146;SDS011;45999;48.808;9.182;2022-09-09T14:58:03;1.70;;;0.70;;
146;SDS011;45999;48.808;9.182;2022-09-09T15:00:31;1.43;;;0.80;;
146;SDS011;45999;48.808;9.182;2022-09-09T15:02:57;1.17;;;0.70;;
146;SDS011;45999;48.808;9.182;2022-09-09T15:05:23;1.23;;;0.63;;
146;SDS011;45999;48.808;9.182;2022-09-09T15:07:50;1.33;;;0.70;;
146;SDS011;45999;48.808;9.182;2022-09-09T15:10:16;1.23;;;0.73;;
146;SDS011;45999;48.808;9.182;2022-09-09T15:12:43;2.70;;;0.80;;
146;SDS011;45999;48.808;9.182;2022-09-09T15:15:10;1.10;;;0.70;;
146;SDS011;45999;48.808;9.182;2022-09-09T15:17:37;2.43;;;0.80;;
146;SDS011;45999;48.808;9.182;2022-09-09T15:20:04;0.97;;;0.60;;
146;SDS011;45999;48.808;9.182;2022-09-09T15:22:31;2.27;;;0.60;;
146;SDS011;45999;48.808;9.182;2022-09-09T15:24:58;3.10;;;0.97;;
146;SDS011;45999;48.808;9.182;2022-09-09T15:27:25;1.47;;;0.70;;
146;SDS011;45999;48.808;9.182;2022-09-09T15:29:51;1.90;;;0.73;;
146;SDS011;45999;48.808;9.182;2022-09-09T15:32:18;3.00;;;0.70;;
146;SDS011;45999;48.808;9.182;2022-09-09T15:34:44;0.87;;;0.63;;
146;SDS011;45999;48.808;9.182;2022-09-09T15:37:11;1.80;;;0.70;;
146;SDS011;45999;48.808;9.182;2022-09-09T15:39:39;2.47;;;0.73;;
146;SDS011;45999;48.808;9.182;2022-09-09T15:42:06;0.67;;;0.63;;
146;SDS011;45999;48.808;9.182;2022-09-09T15:44:40;1.33;;;0.63;;
146;SDS011;45999;48.808;9.182;2022-09-09T15:47:07;1.40;;;0.90;;
146;SDS011;45999;48.808;9.182;2022-09-09T15:49:37;0.83;;;0.60;;
146;SDS011;45999;48.808;9.182;2022-09-09T15:52:04;1.67;;;0.70;;
146;SDS011;45999;48.808;9.182;2022-09-09T15:54:31;0.83;;;0.60;;
146;SDS011;45999;48.808;9.182;2022-09-09T15:57:00;0.77;;;0.60;;
146;SDS011;45999;48.808;9.182;2022-09-09T15:59:29;1.20;;;0.63;;
146;SDS011;45999;48.808;9.182;2022-09-09T16:01:56;1.73;;;0.80;;
146;SDS011;45999;48.808;9.182;2022-09-09T16:04:25;2.40;;;0.87;;
146;SDS011;45999;48.808;9.182;2022-09-09T16:07:01;1.80;;;0.90;;
146;SDS011;45999;48.808;9.182;2022-09-09T16:09:29;2.27;;;0.77;;
146;SDS011;45999;48.808;9.182;2022-09-09T16:11:56;1.63;;;0.80;;
146;SDS011;45999;48.808;9.182;2022-09-09T16:14:25;2.70;;;1.00;;
146;SDS011;45999;48.808;9.182;2022-09-09T16:16:52;1.00;;;0.70;;
146;SDS011;45999;48.808;9.182;2022-09-09T16:19:19;1.10;;;0.80;;
146;SDS011;45999;48.808;9.182;2022-09-09T16:21:47;1.00;;;0.80;;
146;SDS011;45999;48.808;9.182;2022-09-09T16:24:15;2.97;;;0.80;;
146;SDS011;45999;48.808;9.182;2022-09-09T16:26:45;1.90;;;0.80;;
146;SDS011;45999;48.808;9.182;2022-09-09T16:29:16;2.50;;;1.00;;
146;SDS011;45999;48.808;9.182;2022-09-09T16:31:44;2.13;;;1.00;;
146;SDS011;45999;48.808;9.182;2022-09-09T16:34:12;3.27;;;0.87;;
146;SDS011;45999;48.808;9.182;2022-09-09T16:36:39;7.57;;;1.10;;
146;SDS011;45999;48.808;9.182;2022-09-09T16:39:11;1.90;;;0.70;;
146;SDS011;45999;48.808;9.182;2022-09-09T16:41:40;1.53;;;0.77;;
146;SDS011;45999;48.808;9.182;2022-09-09T16:44:08;2.80;;;1.47;;
146;SDS011;45999;48.808;9.182;2022-09-09T16:46:37;2.73;;;0.60;;
146;SDS011;45999;48.808;9.182;2022-09-09T16:49:08;0.77;;;0.60;;
146;SDS011;45999;48.808;9.182;2022-09-09T16:51:37;1.53;;;0.50;;
146;SDS011;45999;48.808;9.182;2022-09-09T16:54:08;1.67;;;0.60;;
146;SDS011;45999;48.808;9.182;2022-09-09T16:56:37;0.63;;;0.50;;
146;SDS011;45999;48.808;9.182;2022-09-09T16:59:07;1.13;;;0.53;;
146;SDS011;45999;48.808;9.182;2022-09-09T17:01:35;0.87;;;0.40;;
146;SDS011;45999;48.808;9.182;2022-09-09T17:04:06;1.23;;;0.40;;
146;SDS011;45999;48.808;9.182;2022-09-09T17:06:35;0.47;;;0.40;;
146;SDS011;45999;48.808;9.182;2022-09-09T17:09:07;1.37;;;0.60;;
146;SDS011;45999;48.808;9.182;2022-09-09T17:11:35;1.90;;;0.50;;
146;SDS011;45999;48.808;9.182;2022-09-09T17:14:03;1.30;;;0.47;;
146;SDS011;45999;48.808;9.182;2022-09-09T17:16:31;1.20;;;0.80;;
146;SDS011;45999;48.808;9.182;2022-09-09T17:18:59;0.50;;;0.50;;
146;SDS011;45999;48.808;9.182;2022-09-09T17:21:27;1.83;;;0.70;;
146;SDS011;45999;48.808;9.182;2022-09-09T17:23:55;0.97;;;0.60;;
146;SDS011;45999;48.808;9.182;2022-09-09T17:26:24;0.87;;;0.60;;
146;SDS011;45999;48.808;9.182;2022-09-09T17:28:53;0.60;;;0.50;;
146;SDS011;45999;48.808;9.182;2022-09-09T17:31:23;0.77;;;0.63;;
146;SDS011;45999;48.808;9.182;2022-09-09T17:33:51;1.63;;;0.70;;
146;SDS011;45999;48.808;9.182;2022-09-09T17:36:20;1.50;;;0.60;;
146;SDS011;45999;48.808;9.182;2022-09-09T17:38:51;1.00;;;0.80;;
146;SDS011;45999;48.808;9.182;2022-09-09T17:41:19;0.97;;;0.90;;
146;SDS011;45999;48.808;9.182;2022-09-09T17:43:48;1.50;;;0.60;;
146;SDS011;45999;48.808;9.182;2022-09-09T17:46:19;0.80;;;0.80;;
146;SDS011;45999;48.808;9.182;2022-09-09T17:48:47;0.60;;;0.60;;
146;SDS011;45999;48.808;9.182;2022-09-09T17:51:16;0.83;;;0.70;;
146;SDS011;45999;48.808;9.182;2022-09-09T17:53:46;1.73;;;0.60;;